createdAt,value
2019-06-26T00:00:24.422Z,76.54
2019-06-26T00:01:28.826Z,76.59
2019-06-26T00:02:33.286Z,76.75
2019-06-26T00:03:37.758Z,76.57
2019-06-26T00:04:42.232Z,76.73
2019-06-26T00:05:46.694Z,76.74
2019-06-26T00:06:51.203Z,76.75
2019-06-26T00:07:55.658Z,76.60
2019-06-26T00:09:00.140Z,76.92
2019-06-26T00:10:04.578Z,76.89
2019-06-26T00:11:09.081Z,76.86
2019-06-26T00:12:13.470Z,76.89
2019-06-26T00:13:26.135Z,76.90
2019-06-26T00:14:22.374Z,76.84
2019-06-26T00:15:26.909Z,76.81
2019-06-26T00:16:31.322Z,76.95
2019-06-26T00:17:35.747Z,77.15
2019-06-26T00:18:40.283Z,77.13
2019-06-26T00:19:44.674Z,76.76
2019-06-26T00:20:49.144Z,76.83
2019-06-26T00:21:53.665Z,76.61
2019-06-26T00:22:58.058Z,76.72
2019-06-26T00:24:02.558Z,76.57
2019-06-26T00:25:06.992Z,76.68
2019-06-26T00:26:11.453Z,76.50
2019-06-26T00:27:15.932Z,76.42
2019-06-26T00:28:20.413Z,76.25
2019-06-26T00:29:24.895Z,76.40
2019-06-26T00:30:29.289Z,76.32
2019-06-26T00:31:33.774Z,76.04
2019-06-26T00:32:38.209Z,76.50
2019-06-26T00:33:42.706Z,76.29
2019-06-26T00:34:47.182Z,76.17
2019-06-26T00:35:51.723Z,76.14
2019-06-26T00:36:56.240Z,76.21
2019-06-26T00:38:00.574Z,76.74
2019-06-26T00:39:05.033Z,76.45
2019-06-26T00:40:09.453Z,76.67
2019-06-26T00:41:13.922Z,76.12
2019-06-26T00:42:18.388Z,75.95
2019-06-26T00:43:22.839Z,75.80
2019-06-26T00:44:27.340Z,75.67
2019-06-26T00:45:31.765Z,75.88
2019-06-26T00:46:36.203Z,75.83
2019-06-26T00:47:40.667Z,75.60
2019-06-26T00:48:45.113Z,75.73
2019-06-26T00:49:49.603Z,75.88
2019-06-26T00:50:54.031Z,75.87
2019-06-26T00:51:58.453Z,75.56
2019-06-26T00:53:02.925Z,75.65
2019-06-26T00:54:07.351Z,75.34
2019-06-26T00:55:11.850Z,75.65
2019-06-26T00:56:16.278Z,75.55
2019-06-26T00:57:20.712Z,75.65
2019-06-26T00:58:25.178Z,75.79
2019-06-26T00:59:29.616Z,75.56
2019-06-26T01:00:34.058Z,75.43
2019-06-26T01:01:38.515Z,75.81
2019-06-26T01:02:42.943Z,75.40
2019-06-26T01:03:47.336Z,75.71
2019-06-26T01:04:51.825Z,75.38
2019-06-26T01:05:56.401Z,75.71
2019-06-26T01:07:00.924Z,75.54
2019-06-26T01:08:05.310Z,75.33
2019-06-26T01:09:09.735Z,75.43
2019-06-26T01:10:14.191Z,75.82
2019-06-26T01:11:21.585Z,75.88
2019-06-26T01:12:23.081Z,75.69
2019-06-26T01:13:27.648Z,75.72
2019-06-26T01:14:32.049Z,75.88
2019-06-26T01:15:36.556Z,75.63
2019-06-26T01:16:40.978Z,75.74
2019-06-26T01:17:45.427Z,75.93
2019-06-26T01:18:49.877Z,75.82
2019-06-26T01:19:54.288Z,76.06
2019-06-26T01:20:58.740Z,76.19
2019-06-26T01:22:03.467Z,76.23
2019-06-26T01:23:07.677Z,76.44
2019-06-26T01:24:12.243Z,76.72
2019-06-26T01:25:16.613Z,76.90
2019-06-26T01:26:21.054Z,77.07
2019-06-26T01:27:25.446Z,77.33
2019-06-26T01:28:29.959Z,77.06
2019-06-26T01:29:34.395Z,77.39
2019-06-26T01:30:38.874Z,76.84
2019-06-26T01:31:43.267Z,77.06
2019-06-26T01:32:47.702Z,76.90
2019-06-26T01:33:52.109Z,77.08
2019-06-26T01:34:56.532Z,77.39
2019-06-26T01:36:01.067Z,77.51
2019-06-26T01:37:05.443Z,77.54
2019-06-26T01:38:09.870Z,77.43
2019-06-26T01:39:14.272Z,77.38
2019-06-26T01:40:18.730Z,77.11
2019-06-26T01:41:23.299Z,76.99
2019-06-26T01:42:27.679Z,76.76
2019-06-26T01:43:32.199Z,76.94
2019-06-26T01:44:36.538Z,76.78
2019-06-26T01:45:41.039Z,76.63
2019-06-26T01:46:45.438Z,76.38
2019-06-26T01:47:49.871Z,76.44
2019-06-26T01:48:54.379Z,76.42
2019-06-26T01:49:58.793Z,76.36
2019-06-26T01:51:03.210Z,76.30
2019-06-26T01:52:07.617Z,76.36
2019-06-26T01:53:12.071Z,76.45
2019-06-26T01:54:16.517Z,76.53
2019-06-26T01:55:20.934Z,76.72
2019-06-26T01:56:25.359Z,76.72
2019-06-26T01:57:29.758Z,76.43
2019-06-26T01:58:34.237Z,76.39
2019-06-26T01:59:38.668Z,76.66
2019-06-26T02:00:43.106Z,76.59
2019-06-26T02:01:47.552Z,76.49
2019-06-26T02:02:51.994Z,76.75
2019-06-26T02:03:56.438Z,76.65
2019-06-26T02:05:00.880Z,76.90
2019-06-26T02:06:05.394Z,76.78
2019-06-26T02:07:09.769Z,76.95
2019-06-26T02:08:14.277Z,76.77
2019-06-26T02:09:18.803Z,77.10
2019-06-26T02:10:23.170Z,76.86
2019-06-26T02:11:27.621Z,76.80
2019-06-26T02:12:32.044Z,76.83
2019-06-26T02:13:36.474Z,77.03
2019-06-26T02:14:40.908Z,77.03
2019-06-26T02:15:45.358Z,76.76
2019-06-26T02:16:49.809Z,76.76
2019-06-26T02:17:54.282Z,77.58
2019-06-26T02:18:58.773Z,77.19
2019-06-26T02:20:03.188Z,77.33
2019-06-26T02:21:07.639Z,77.28
2019-06-26T02:22:12.111Z,77.50
2019-06-26T02:23:16.517Z,77.84
2019-06-26T02:24:23.978Z,77.66
2019-06-26T02:25:27.612Z,77.93
2019-06-26T02:26:32.020Z,77.82
2019-06-26T02:27:36.445Z,78.00
2019-06-26T02:28:40.883Z,77.98
2019-06-26T02:29:45.336Z,77.87
2019-06-26T02:30:49.764Z,77.87
2019-06-26T02:31:54.241Z,77.68
2019-06-26T02:32:58.680Z,77.53
2019-06-26T02:34:03.113Z,77.50
2019-06-26T02:35:09.921Z,77.55
2019-06-26T02:36:12.008Z,77.36
2019-06-26T02:37:16.440Z,77.21
2019-06-26T02:38:20.828Z,77.62
2019-06-26T02:39:25.291Z,77.71
2019-06-26T02:40:29.775Z,77.88
2019-06-26T02:41:34.151Z,77.82
2019-06-26T02:42:38.649Z,77.74
2019-06-26T02:43:43.025Z,78.09
2019-06-26T02:44:53.795Z,77.75
2019-06-26T02:45:52.020Z,77.94
2019-06-26T02:47:13.616Z,78.17
2019-06-26T02:48:00.883Z,78.10
2019-06-26T02:49:05.354Z,77.68
2019-06-26T02:50:09.757Z,77.50
2019-06-26T02:51:14.199Z,77.24
2019-06-26T02:52:18.609Z,77.31
2019-06-26T02:53:23.045Z,77.84
2019-06-26T02:54:27.587Z,77.49
2019-06-26T02:55:31.977Z,77.20
2019-06-26T02:56:36.444Z,77.42
2019-06-26T02:57:40.838Z,77.50
2019-06-26T02:58:45.304Z,77.63
2019-06-26T02:59:49.736Z,77.65
2019-06-26T03:00:54.114Z,78.25
2019-06-26T03:01:58.502Z,78.53
2019-06-26T03:03:02.984Z,78.21
2019-06-26T03:04:07.397Z,78.39
2019-06-26T03:05:11.863Z,77.99
2019-06-26T03:06:16.277Z,78.21
2019-06-26T03:07:20.751Z,77.86
2019-06-26T03:08:25.248Z,77.46
2019-06-26T03:09:29.638Z,77.36
2019-06-26T03:10:34.065Z,77.32
2019-06-26T03:11:38.596Z,77.62
2019-06-26T03:12:43.064Z,77.43
2019-06-26T03:13:47.480Z,77.50
2019-06-26T03:15:07.517Z,77.50
2019-06-26T03:15:56.355Z,77.83
2019-06-26T03:17:00.776Z,77.89
2019-06-26T03:18:05.331Z,77.65
2019-06-26T03:19:09.774Z,77.42
2019-06-26T03:20:14.213Z,77.57
2019-06-26T03:21:18.635Z,77.94
2019-06-26T03:22:23.089Z,77.60
2019-06-26T03:23:27.571Z,77.72
2019-06-26T03:24:32.036Z,77.76
2019-06-26T03:25:36.460Z,77.90
2019-06-26T03:26:40.894Z,78.33
2019-06-26T03:27:45.348Z,78.08
2019-06-26T03:28:49.766Z,78.01
2019-06-26T03:29:54.144Z,78.31
2019-06-26T03:30:58.652Z,78.42
2019-06-26T03:32:03.175Z,78.33
2019-06-26T03:33:07.556Z,78.28
2019-06-26T03:34:12.024Z,78.47
2019-06-26T03:35:16.451Z,78.43
2019-06-26T03:36:20.891Z,78.48
2019-06-26T03:37:25.343Z,78.25
2019-06-26T03:38:29.808Z,77.97
2019-06-26T03:39:34.260Z,77.71
2019-06-26T03:40:38.674Z,77.33
2019-06-26T03:41:43.120Z,77.36
2019-06-26T03:42:47.548Z,77.16
2019-06-26T03:43:52.028Z,77.31
2019-06-26T03:44:56.463Z,77.06
2019-06-26T03:46:00.899Z,76.89
2019-06-26T03:47:05.338Z,77.16
2019-06-26T03:48:09.780Z,77.19
2019-06-26T03:49:14.192Z,77.18
2019-06-26T03:50:18.602Z,77.18
2019-06-26T03:51:23.047Z,77.93
2019-06-26T03:52:27.505Z,78.30
2019-06-26T03:53:31.997Z,78.20
2019-06-26T03:54:36.441Z,78.15
2019-06-26T03:55:40.856Z,77.84
2019-06-26T03:56:45.382Z,77.54
2019-06-26T03:57:49.787Z,77.23
2019-06-26T03:58:54.224Z,76.82
2019-06-26T03:59:58.701Z,76.25
2019-06-26T04:01:03.134Z,75.82
2019-06-26T04:02:07.575Z,75.52
2019-06-26T04:03:12.029Z,75.39
2019-06-26T04:04:16.552Z,75.15
2019-06-26T04:05:21.069Z,74.87
2019-06-26T04:06:25.580Z,74.68
2019-06-26T04:07:30.090Z,74.93
2019-06-26T04:08:34.522Z,75.04
2019-06-26T04:09:38.971Z,75.08
2019-06-26T04:10:43.700Z,75.20
2019-06-26T04:11:47.946Z,75.33
2019-06-26T04:12:52.507Z,75.46
2019-06-26T04:13:56.812Z,75.59
2019-06-26T04:15:01.282Z,75.50
2019-06-26T04:16:05.705Z,75.78
2019-06-26T04:17:10.159Z,75.85
2019-06-26T04:18:14.607Z,76.01
2019-06-26T04:19:19.061Z,76.28
2019-06-26T04:20:23.536Z,76.09
2019-06-26T04:21:27.989Z,75.81
2019-06-26T04:22:32.461Z,76.15
2019-06-26T04:23:36.894Z,75.78
2019-06-26T04:24:41.375Z,75.68
2019-06-26T04:25:45.833Z,75.57
2019-06-26T04:26:50.274Z,75.37
2019-06-26T04:27:54.726Z,75.34
2019-06-26T04:28:59.165Z,75.35
2019-06-26T04:30:03.654Z,75.16
2019-06-26T04:31:08.120Z,75.06
2019-06-26T04:32:12.563Z,75.00
2019-06-26T04:33:17.011Z,74.94
2019-06-26T04:34:21.516Z,74.90
2019-06-26T04:35:25.942Z,75.07
2019-06-26T04:36:30.396Z,75.13
2019-06-26T04:37:34.846Z,74.90
2019-06-26T04:38:39.289Z,74.95
2019-06-26T04:39:43.820Z,74.78
2019-06-26T04:40:48.283Z,74.67
2019-06-26T04:41:52.764Z,74.64
2019-06-26T04:42:57.170Z,74.52
2019-06-26T04:44:01.619Z,74.53
2019-06-26T04:45:06.058Z,74.37
2019-06-26T04:46:10.562Z,74.37
2019-06-26T04:47:15.050Z,74.34
2019-06-26T04:48:19.499Z,74.49
2019-06-26T04:49:23.950Z,74.31
2019-06-26T04:50:28.469Z,74.18
2019-06-26T04:51:32.951Z,74.18
2019-06-26T04:52:37.413Z,74.34
2019-06-26T04:53:41.848Z,74.29
2019-06-26T04:54:46.297Z,74.47
2019-06-26T04:55:50.788Z,74.20
2019-06-26T04:56:55.260Z,74.08
2019-06-26T04:57:59.751Z,73.98
2019-06-26T04:59:04.226Z,73.95
2019-06-26T05:00:08.774Z,74.00
2019-06-26T05:01:13.239Z,73.88
2019-06-26T05:02:17.671Z,73.96
2019-06-26T05:03:22.308Z,73.90
2019-06-26T05:04:26.639Z,73.85
2019-06-26T05:05:39.692Z,73.75
2019-06-26T05:06:35.613Z,73.55
2019-06-26T05:07:40.056Z,73.43
2019-06-26T05:08:44.534Z,73.41
2019-06-26T05:09:49.096Z,73.35
2019-06-26T05:10:53.646Z,73.44
2019-06-26T05:11:58.109Z,73.30
2019-06-26T05:13:02.605Z,73.17
2019-06-26T05:14:07.042Z,73.05
2019-06-26T05:15:11.541Z,73.04
2019-06-26T05:16:20.079Z,72.78
2019-06-26T05:17:20.446Z,72.70
2019-06-26T05:18:24.920Z,72.63
2019-06-26T05:19:29.424Z,72.51
2019-06-26T05:20:33.910Z,72.44
2019-06-26T05:21:38.398Z,72.25
2019-06-26T05:22:42.848Z,72.19
2019-06-26T05:23:47.350Z,72.16
2019-06-26T05:24:51.834Z,72.07
2019-06-26T05:25:56.338Z,72.02
2019-06-26T05:27:00.818Z,71.99
2019-06-26T05:28:08.275Z,71.82
2019-06-26T05:29:09.764Z,71.73
2019-06-26T05:30:14.285Z,71.78
2019-06-26T05:31:18.892Z,71.35
2019-06-26T05:32:23.305Z,71.39
2019-06-26T05:33:27.815Z,70.89
2019-06-26T05:34:32.382Z,71.02
2019-06-26T05:35:36.841Z,71.08
2019-06-26T05:36:41.361Z,71.00
2019-06-26T05:37:45.873Z,71.04
2019-06-26T05:38:50.417Z,70.98
2019-06-26T05:39:54.981Z,70.72
2019-06-26T05:40:59.343Z,68.57
2019-06-26T05:42:06.675Z,69.37
2019-06-26T05:43:08.505Z,68.44
2019-06-26T05:44:13.016Z,67.76
2019-06-26T05:45:17.533Z,67.47
2019-06-26T05:46:31.051Z,67.63
2019-06-26T05:47:26.690Z,67.24
2019-06-26T05:48:31.162Z,67.07
2019-06-26T05:49:35.667Z,66.90
2019-06-26T05:50:40.173Z,66.64
2019-06-26T05:51:44.715Z,66.77
2019-06-26T05:52:49.250Z,66.33
2019-06-26T05:53:53.823Z,66.73
2019-06-26T05:54:58.353Z,64.81
2019-06-26T05:56:02.881Z,65.94
2019-06-26T05:57:07.343Z,65.56
2019-06-26T05:58:11.953Z,65.31
2019-06-26T05:59:16.501Z,65.46
2019-06-26T06:00:20.956Z,64.96
2019-06-26T06:01:25.465Z,65.23
2019-06-26T06:02:29.946Z,65.28
2019-06-26T06:03:34.418Z,63.65
2019-06-26T06:04:38.923Z,63.17
2019-06-26T06:05:43.483Z,62.81
2019-06-26T06:06:47.983Z,63.16
2019-06-26T06:07:52.540Z,63.90
2019-06-26T06:08:57.146Z,61.47
2019-06-26T06:10:01.618Z,61.65
2019-06-26T06:11:06.201Z,61.80
2019-06-26T06:12:10.682Z,62.98
2019-06-26T06:13:15.204Z,63.21
2019-06-26T06:14:19.731Z,62.57
2019-06-26T06:15:24.358Z,61.09
2019-06-26T06:16:28.818Z,62.16
2019-06-26T06:17:33.401Z,61.68
2019-06-26T06:18:37.957Z,61.43
2019-06-26T06:19:42.568Z,60.95
2019-06-26T06:20:47.059Z,59.89
2019-06-26T06:21:51.694Z,60.53
2019-06-26T06:22:56.209Z,60.93
2019-06-26T06:24:00.778Z,60.71
2019-06-26T06:25:05.302Z,61.56
2019-06-26T06:26:09.834Z,60.98
2019-06-26T06:27:14.369Z,60.71
2019-06-26T06:28:18.953Z,61.50
2019-06-26T06:29:23.448Z,61.30
2019-06-26T06:30:27.941Z,61.39
2019-06-26T06:31:32.450Z,61.12
2019-06-26T06:32:37.054Z,61.14
2019-06-26T06:33:41.568Z,61.30
2019-06-26T06:34:46.149Z,61.72
2019-06-26T06:35:50.657Z,61.47
2019-06-26T06:36:55.172Z,61.61
2019-06-26T06:37:59.788Z,61.88
2019-06-26T06:39:04.313Z,61.31
2019-06-26T06:40:08.845Z,61.70
2019-06-26T06:41:13.464Z,60.73
2019-06-26T06:42:17.934Z,60.94
2019-06-26T06:43:22.421Z,61.15
2019-06-26T06:44:27.029Z,61.16
2019-06-26T06:45:31.535Z,59.12
2019-06-26T06:46:36.026Z,60.82
2019-06-26T06:47:40.604Z,60.03
2019-06-26T06:48:45.226Z,60.10
2019-06-26T06:49:49.782Z,59.15
2019-06-26T06:50:54.286Z,58.30
2019-06-26T06:51:58.863Z,58.82
2019-06-26T06:53:03.419Z,58.92
2019-06-26T06:54:08.006Z,58.39
2019-06-26T06:55:12.690Z,58.29
2019-06-26T06:56:17.106Z,57.02
2019-06-26T06:57:21.722Z,56.98
2019-06-26T06:58:26.235Z,56.78
2019-06-26T06:59:30.822Z,56.39
2019-06-26T07:00:35.317Z,55.47
2019-06-26T07:01:39.852Z,56.50
2019-06-26T07:02:44.364Z,57.13
2019-06-26T07:03:48.846Z,57.42
2019-06-26T07:04:53.330Z,57.17
2019-06-26T07:05:57.838Z,57.67
2019-06-26T07:07:02.374Z,57.51
2019-06-26T07:08:06.876Z,57.79
2019-06-26T07:09:11.444Z,58.46
2019-06-26T07:10:15.998Z,58.86
2019-06-26T07:11:20.436Z,58.96
2019-06-26T07:12:25.032Z,58.70
2019-06-26T07:13:29.537Z,58.37
2019-06-26T07:14:34.147Z,58.88
2019-06-26T07:15:38.685Z,58.90
2019-06-26T07:16:43.180Z,58.05
2019-06-26T07:17:47.708Z,58.67
2019-06-26T07:18:52.215Z,58.42
2019-06-26T07:19:56.773Z,58.23
2019-06-26T07:21:01.301Z,58.42
2019-06-26T07:22:07.360Z,58.88
2019-06-26T07:23:10.420Z,58.98
2019-06-26T07:24:14.912Z,58.56
2019-06-26T07:25:19.422Z,58.63
2019-06-26T07:26:23.937Z,58.69
2019-06-26T07:27:28.469Z,58.57
2019-06-26T07:28:32.995Z,58.62
2019-06-26T07:29:37.524Z,58.64
2019-06-26T07:30:42.056Z,58.71
2019-06-26T07:31:46.528Z,58.92
2019-06-26T07:32:51.083Z,59.17
2019-06-26T07:33:56.073Z,58.90
2019-06-26T07:35:00.220Z,59.15
2019-06-26T07:36:04.707Z,59.15
2019-06-26T07:37:09.203Z,59.62
2019-06-26T07:38:13.721Z,59.26
2019-06-26T07:39:18.247Z,58.84
2019-06-26T07:40:22.794Z,58.08
2019-06-26T07:41:27.341Z,58.62
2019-06-26T07:42:31.839Z,58.69
2019-06-26T07:43:36.456Z,58.75
2019-06-26T07:44:40.961Z,58.73
2019-06-26T07:45:45.507Z,58.97
2019-06-26T07:46:50.083Z,59.19
2019-06-26T07:47:54.558Z,58.98
2019-06-26T07:48:59.136Z,58.90
2019-06-26T07:50:03.760Z,59.17
2019-06-26T07:51:08.172Z,59.20
2019-06-26T07:52:12.691Z,59.07
2019-06-26T07:53:17.289Z,59.13
2019-06-26T07:54:21.851Z,59.38
2019-06-26T07:55:26.434Z,59.51
2019-06-26T07:56:30.973Z,59.40
2019-06-26T07:57:35.445Z,59.20
2019-06-26T07:58:40.093Z,59.16
2019-06-26T07:59:44.553Z,59.20
2019-06-26T08:00:49.114Z,59.26
2019-06-26T08:01:53.622Z,59.26
2019-06-26T08:02:58.158Z,59.21
2019-06-26T08:04:02.761Z,59.27
2019-06-26T08:05:07.341Z,59.38
2019-06-26T08:06:11.957Z,59.22
2019-06-26T08:07:16.464Z,59.36
2019-06-26T08:08:21.008Z,59.18
2019-06-26T08:09:25.464Z,59.22
2019-06-26T08:10:29.996Z,59.19
2019-06-26T08:11:34.538Z,59.14
2019-06-26T08:12:38.956Z,59.29
2019-06-26T08:13:43.533Z,58.91
2019-06-26T08:14:48.151Z,58.71
2019-06-26T08:15:52.632Z,58.70
2019-06-26T08:16:57.125Z,58.45
2019-06-26T08:18:01.771Z,58.43
2019-06-26T08:19:06.138Z,57.66
2019-06-26T08:20:10.656Z,57.86
2019-06-26T08:21:15.173Z,57.82
2019-06-26T08:22:19.731Z,57.74
2019-06-26T08:23:24.229Z,57.78
2019-06-26T08:24:29.105Z,55.97
2019-06-26T08:25:33.494Z,57.08
2019-06-26T08:26:38.118Z,57.31
2019-06-26T08:27:42.576Z,57.01
2019-06-26T08:28:50.029Z,57.12
2019-06-26T08:29:53.699Z,57.50
2019-06-26T08:30:58.178Z,57.74
2019-06-26T08:32:02.750Z,57.76
2019-06-26T08:33:07.167Z,57.91
2019-06-26T08:34:11.743Z,58.07
2019-06-26T08:35:16.289Z,57.64
2019-06-26T08:36:20.856Z,57.64
2019-06-26T08:37:25.402Z,56.79
2019-06-26T08:38:29.868Z,57.06
2019-06-26T08:39:34.383Z,57.24
2019-06-26T08:40:38.901Z,57.17
2019-06-26T08:41:43.356Z,56.94
2019-06-26T08:42:47.928Z,56.74
2019-06-26T08:43:52.440Z,56.55
2019-06-26T08:44:56.946Z,55.38
2019-06-26T08:46:01.414Z,55.56
2019-06-26T08:47:06.006Z,55.05
2019-06-26T08:48:19.262Z,54.97
2019-06-26T08:49:24.993Z,55.96
2019-06-26T08:50:19.638Z,54.99
2019-06-26T08:51:24.119Z,55.76
2019-06-26T08:52:28.648Z,55.59
2019-06-26T08:53:33.216Z,55.43
2019-06-26T08:54:37.756Z,55.49
2019-06-26T08:55:42.224Z,55.38
2019-06-26T08:56:46.777Z,54.53
2019-06-26T08:57:51.365Z,54.79
2019-06-26T08:58:55.950Z,55.13
2019-06-26T09:00:00.488Z,55.01
2019-06-26T09:01:05.002Z,55.10
2019-06-26T09:02:09.429Z,54.68
2019-06-26T09:03:14.030Z,54.15
2019-06-26T09:04:18.568Z,54.36
2019-06-26T09:05:23.031Z,54.40
2019-06-26T09:06:27.622Z,54.75
2019-06-26T09:07:32.236Z,54.33
2019-06-26T09:08:36.761Z,54.66
2019-06-26T09:09:41.358Z,55.20
2019-06-26T09:10:45.852Z,54.96
2019-06-26T09:11:50.449Z,54.30
2019-06-26T09:12:54.939Z,54.42
2019-06-26T09:13:59.525Z,53.96
2019-06-26T09:15:04.144Z,54.63
2019-06-26T09:16:08.608Z,54.71
2019-06-26T09:17:13.176Z,54.41
2019-06-26T09:18:31.140Z,54.19
2019-06-26T09:19:22.293Z,53.08
2019-06-26T09:20:26.843Z,53.27
2019-06-26T09:21:31.605Z,52.42
2019-06-26T09:22:35.898Z,53.84
2019-06-26T09:23:40.324Z,50.88
2019-06-26T09:24:44.930Z,52.03
2019-06-26T09:25:49.855Z,51.28
2019-06-26T09:26:53.959Z,52.33
2019-06-26T09:27:58.469Z,52.55
2019-06-26T09:29:03.018Z,51.79
2019-06-26T09:30:07.571Z,51.79
2019-06-26T09:31:12.124Z,51.94
2019-06-26T09:32:16.649Z,52.56
2019-06-26T09:33:21.203Z,51.87
2019-06-26T09:34:25.759Z,52.47
2019-06-26T09:35:30.349Z,52.48
2019-06-26T09:36:34.858Z,52.07
2019-06-26T09:37:39.295Z,52.59
2019-06-26T09:38:43.893Z,52.44
2019-06-26T09:39:48.463Z,52.38
2019-06-26T09:40:53.019Z,52.08
2019-06-26T09:41:57.536Z,52.43
2019-06-26T09:43:02.057Z,51.57
2019-06-26T09:44:06.692Z,51.58
2019-06-26T09:45:11.179Z,52.09
2019-06-26T09:46:15.720Z,51.92
2019-06-26T09:47:20.249Z,52.07
2019-06-26T09:48:24.717Z,51.58
2019-06-26T09:49:29.332Z,51.40
2019-06-26T09:50:33.867Z,50.96
2019-06-26T09:51:38.505Z,50.77
2019-06-26T09:52:42.969Z,51.74
2019-06-26T09:53:48.076Z,51.75
2019-06-26T09:54:52.052Z,50.98
2019-06-26T09:55:56.491Z,51.56
2019-06-26T09:57:01.255Z,51.75
2019-06-26T09:58:05.680Z,51.33
2019-06-26T09:59:10.175Z,51.50
2019-06-26T10:00:14.762Z,51.27
2019-06-26T10:01:19.182Z,51.14
2019-06-26T10:02:23.824Z,51.76
2019-06-26T10:03:28.414Z,50.71
2019-06-26T10:04:32.920Z,50.99
2019-06-26T10:05:37.431Z,50.37
2019-06-26T10:06:41.992Z,50.47
2019-06-26T10:07:46.523Z,50.78
2019-06-26T10:08:54.144Z,50.42
2019-06-26T10:09:55.927Z,50.25
2019-06-26T10:11:00.206Z,50.56
2019-06-26T10:12:04.749Z,50.45
2019-06-26T10:13:09.277Z,49.96
2019-06-26T10:14:13.818Z,50.70
2019-06-26T10:15:18.429Z,51.18
2019-06-26T10:16:22.938Z,50.74
2019-06-26T10:17:27.462Z,50.40
2019-06-26T10:18:32.024Z,50.86
2019-06-26T10:19:36.584Z,50.29
2019-06-26T10:20:41.134Z,50.58
2019-06-26T10:21:45.789Z,50.10
2019-06-26T10:22:50.260Z,50.41
2019-06-26T10:23:54.856Z,50.07
2019-06-26T10:24:59.347Z,50.24
2019-06-26T10:26:03.878Z,50.41
2019-06-26T10:27:08.517Z,50.03
2019-06-26T10:28:13.050Z,50.56
2019-06-26T10:29:17.602Z,50.40
2019-06-26T10:30:22.226Z,50.69
2019-06-26T10:31:26.735Z,50.16
2019-06-26T10:32:31.174Z,50.12
2019-06-26T10:33:35.620Z,50.47
2019-06-26T10:34:40.183Z,50.67
2019-06-26T10:35:44.764Z,49.66
2019-06-26T10:36:49.399Z,50.41
2019-06-26T10:37:53.900Z,50.66
2019-06-26T10:38:58.465Z,50.49
2019-06-26T10:40:02.994Z,50.41
2019-06-26T10:41:07.576Z,49.94
2019-06-26T10:42:12.107Z,48.30
2019-06-26T10:43:16.633Z,48.77
2019-06-26T10:44:21.208Z,48.80
2019-06-26T10:45:25.758Z,48.95
2019-06-26T10:46:30.303Z,48.95
2019-06-26T10:47:34.872Z,48.88
2019-06-26T10:48:39.414Z,48.94
2019-06-26T10:49:43.947Z,47.91
2019-06-26T10:50:56.890Z,48.16
2019-06-26T10:51:53.054Z,48.62
2019-06-26T10:52:57.466Z,48.31
2019-06-26T10:54:02.067Z,48.80
2019-06-26T10:55:06.606Z,47.79
2019-06-26T10:56:11.059Z,48.11
2019-06-26T10:57:15.555Z,47.02
2019-06-26T10:58:20.155Z,47.56
2019-06-26T10:59:24.699Z,47.17
2019-06-26T11:00:29.313Z,46.97
2019-06-26T11:01:33.887Z,47.28
2019-06-26T11:02:38.416Z,46.64
2019-06-26T11:03:43.000Z,46.88
2019-06-26T11:04:47.551Z,46.73
2019-06-26T11:05:52.168Z,45.61
2019-06-26T11:06:56.722Z,46.43
2019-06-26T11:08:01.229Z,45.47
2019-06-26T11:09:05.804Z,45.87
2019-06-26T11:10:10.361Z,45.14
2019-06-26T11:11:14.900Z,45.42
2019-06-26T11:12:19.445Z,45.50
2019-06-26T11:13:24.001Z,44.77
2019-06-26T11:14:28.481Z,45.17
2019-06-26T11:15:33.214Z,44.84
2019-06-26T11:16:37.667Z,44.76
2019-06-26T11:17:42.194Z,44.62
2019-06-26T11:18:46.772Z,43.30
2019-06-26T11:19:55.138Z,44.34
2019-06-26T11:20:55.919Z,44.40
2019-06-26T11:22:00.388Z,43.66
2019-06-26T11:23:04.893Z,43.90
2019-06-26T11:24:09.493Z,43.53
2019-06-26T11:25:14.024Z,42.96
2019-06-26T11:26:18.617Z,43.90
2019-06-26T11:27:23.194Z,43.14
2019-06-26T11:28:27.857Z,44.08
2019-06-26T11:29:32.379Z,43.76
2019-06-26T11:30:36.934Z,44.02
2019-06-26T11:31:41.521Z,44.39
2019-06-26T11:32:46.087Z,44.57
2019-06-26T11:33:50.676Z,43.77
2019-06-26T11:34:55.224Z,43.10
2019-06-26T11:35:59.789Z,43.41
2019-06-26T11:37:04.855Z,43.33
2019-06-26T11:38:08.966Z,43.77
2019-06-26T11:39:13.430Z,43.52
2019-06-26T11:40:18.025Z,43.08
2019-06-26T11:41:22.522Z,43.46
2019-06-26T11:42:27.155Z,43.35
2019-06-26T11:43:31.653Z,43.39
2019-06-26T11:44:36.171Z,43.37
2019-06-26T11:45:40.716Z,43.74
2019-06-26T11:46:45.292Z,43.74
2019-06-26T11:47:49.847Z,43.73
2019-06-26T11:48:54.527Z,43.88
2019-06-26T11:50:00.402Z,43.28
2019-06-26T11:51:03.405Z,43.10
2019-06-26T11:52:08.003Z,42.05
2019-06-26T11:53:12.601Z,42.40
2019-06-26T11:54:17.195Z,42.09
2019-06-26T11:55:21.738Z,42.11
2019-06-26T11:56:26.289Z,42.90
2019-06-26T11:57:30.897Z,41.91
2019-06-26T11:58:35.473Z,41.50
2019-06-26T11:59:39.996Z,41.79
2019-06-26T12:00:44.647Z,41.52
2019-06-26T12:01:49.117Z,41.85
2019-06-26T12:02:53.784Z,41.93
2019-06-26T12:03:58.244Z,42.30
2019-06-26T12:05:02.811Z,41.77
2019-06-26T12:06:15.722Z,42.03
2019-06-26T12:07:11.964Z,42.37
2019-06-26T12:08:18.566Z,41.98
2019-06-26T12:09:21.044Z,42.49
2019-06-26T12:10:25.626Z,41.97
2019-06-26T12:11:30.208Z,42.00
2019-06-26T12:12:34.670Z,42.69
2019-06-26T12:13:39.221Z,43.13
2019-06-26T12:14:43.777Z,41.99
2019-06-26T12:15:48.271Z,42.60
2019-06-26T12:16:52.815Z,42.17
2019-06-26T12:17:57.431Z,42.21
2019-06-26T12:19:01.977Z,42.49
2019-06-26T12:20:17.920Z,42.92
2019-06-26T12:21:11.094Z,42.67
2019-06-26T12:22:15.716Z,42.50
2019-06-26T12:23:20.243Z,42.49
2019-06-26T12:24:26.624Z,42.67
2019-06-26T12:25:29.346Z,42.40
2019-06-26T12:26:33.835Z,42.44
2019-06-26T12:27:38.448Z,41.78
2019-06-26T12:28:43.003Z,41.84
2019-06-26T12:29:47.645Z,41.67
2019-06-26T12:30:52.192Z,41.94
2019-06-26T12:31:56.735Z,42.01
2019-06-26T12:33:03.482Z,42.56
2019-06-26T12:34:05.816Z,42.61
2019-06-26T12:35:10.393Z,42.49
2019-06-26T12:36:15.017Z,41.88
2019-06-26T12:37:19.501Z,42.18
2019-06-26T12:38:24.084Z,42.70
2019-06-26T12:39:28.626Z,42.47
2019-06-26T12:40:33.205Z,42.07
2019-06-26T12:41:37.749Z,42.38
2019-06-26T12:42:42.342Z,42.71
2019-06-26T12:43:46.970Z,42.14
2019-06-26T12:44:51.484Z,42.24
2019-06-26T12:45:56.088Z,42.53
2019-06-26T12:47:00.483Z,42.81
2019-06-26T12:48:05.116Z,42.99
2019-06-26T12:49:09.668Z,42.77
2019-06-26T12:50:14.217Z,42.63
2019-06-26T12:51:18.774Z,41.85
2019-06-26T12:52:23.316Z,41.95
2019-06-26T12:53:27.887Z,42.15
2019-06-26T12:54:32.417Z,42.49
2019-06-26T12:55:36.988Z,43.02
2019-06-26T12:56:41.638Z,42.57
2019-06-26T12:57:46.092Z,43.03
2019-06-26T12:58:50.701Z,42.77
2019-06-26T12:59:57.670Z,43.01
2019-06-26T13:00:59.749Z,43.31
2019-06-26T13:02:04.278Z,43.72
2019-06-26T13:03:08.833Z,43.61
2019-06-26T13:04:13.408Z,43.10
2019-06-26T13:05:17.987Z,43.80
2019-06-26T13:06:22.492Z,43.86
2019-06-26T13:07:27.084Z,44.29
2019-06-26T13:08:31.503Z,44.75
2019-06-26T13:09:35.985Z,44.87
2019-06-26T13:10:49.383Z,44.79
2019-06-26T13:11:45.011Z,45.32
2019-06-26T13:12:49.685Z,46.12
2019-06-26T13:14:02.714Z,46.12
2019-06-26T13:14:58.845Z,46.34
2019-06-26T13:16:03.391Z,46.74
2019-06-26T13:17:07.922Z,47.07
2019-06-26T13:18:12.341Z,47.43
2019-06-26T13:19:16.962Z,47.90
2019-06-26T13:20:21.521Z,48.20
2019-06-26T13:21:26.074Z,49.28
2019-06-26T13:22:30.640Z,49.07
2019-06-26T13:23:35.114Z,49.10
2019-06-26T13:24:43.655Z,49.72
2019-06-26T13:25:44.263Z,50.48
2019-06-26T13:26:48.843Z,49.87
2019-06-26T13:27:53.367Z,50.08
2019-06-26T13:28:57.951Z,50.69
2019-06-26T13:30:02.422Z,50.84
2019-06-26T13:31:06.974Z,51.66
2019-06-26T13:32:11.403Z,51.65
2019-06-26T13:33:15.954Z,51.93
2019-06-26T13:34:20.561Z,52.54
2019-06-26T13:35:25.151Z,52.58
2019-06-26T13:36:29.646Z,52.15
2019-06-26T13:37:34.122Z,51.77
2019-06-26T13:38:41.709Z,51.75
2019-06-26T13:39:45.396Z,51.88
2019-06-26T13:40:49.884Z,51.92
2019-06-26T13:41:55.383Z,52.21
2019-06-26T13:42:59.521Z,52.79
2019-06-26T13:44:03.995Z,52.80
2019-06-26T13:45:08.575Z,52.99
2019-06-26T13:46:13.169Z,53.14
2019-06-26T13:47:17.703Z,53.81
2019-06-26T13:48:22.328Z,53.93
2019-06-26T13:49:26.770Z,54.01
2019-06-26T13:50:31.343Z,54.99